sensor_id;sensor_type;location;lat;lon;timestamp;pressure;altitude;pressure_sealevel;temperature;humidity
2184;BME280;1098;48.940;8.962;2022-08-01T00:00:08;98545.63;;;20.60;74.18
2184;BME280;1098;48.940;8.962;2022-08-01T00:02:37;98532.91;;;20.69;74.22
2184;BME280;1098;48.940;8.962;2022-08-01T00:05:06;98543.41;;;20.62;74.04
2184;BME280;1098;48.940;8.962;2022-08-01T00:07:34;98539.09;;;20.56;74.24
2184;BME280;1098;48.940;8.962;2022-08-01T00:10:03;98542.47;;;20.48;75.44
2184;BME280;1098;48.940;8.962;2022-08-01T00:12:31;98539.31;;;20.59;75.22
2184;BME280;1098;48.940;8.962;2022-08-01T00:15:00;98538.34;;;20.50;78.83
2184;BME280;1098;48.940;8.962;2022-08-01T00:17:29;98534.59;;;20.36;77.99
2184;BME280;1098;48.940;8.962;2022-08-01T00:19:57;98539.28;;;20.36;77.54
2184;BME280;1098;48.940;8.962;2022-08-01T00:22:25;98537.72;;;20.24;79.31
2184;BME280;1098;48.940;8.962;2022-08-01T00:24:53;98544.25;;;20.34;78.76
2184;BME280;1098;48.940;8.962;2022-08-01T00:27:21;98544.34;;;20.18;79.57
2184;BME280;1098;48.940;8.962;2022-08-01T00:29:51;98537.22;;;20.51;80.59
2184;BME280;1098;48.940;8.962;2022-08-01T00:32:41;98550.25;;;20.36;81.87
2184;BME280;1098;48.940;8.962;2022-08-01T00:35:09;98547.44;;;20.12;81.51
2184;BME280;1098;48.940;8.962;2022-08-01T00:37:37;98555.19;;;20.05;81.78
2184;BME280;1098;48.940;8.962;2022-08-01T00:40:06;98557.97;;;20.00;84.11
2184;BME280;1098;48.940;8.962;2022-08-01T00:42:34;98561.41;;;20.15;81.89
2184;BME280;1098;48.940;8.962;2022-08-01T00:45:09;98559.31;;;20.02;83.29
2184;BME280;1098;48.940;8.962;2022-08-01T00:47:37;98558.22;;;20.03;84.14
2184;BME280;1098;48.940;8.962;2022-08-01T00:50:07;98555.47;;;20.03;83.49
2184;BME280;1098;48.940;8.962;2022-08-01T00:52:36;98552.50;;;20.29;83.53
2184;BME280;1098;48.940;8.962;2022-08-01T00:55:04;98558.13;;;20.47;81.85
2184;BME280;1098;48.940;8.962;2022-08-01T00:57:33;98553.94;;;20.55;82.33
2184;BME280;1098;48.940;8.962;2022-08-01T01:00:21;98557.63;;;20.40;85.34
2184;BME280;1098;48.940;8.962;2022-08-01T01:02:53;98555.00;;;20.25;83.85
2184;BME280;1098;48.940;8.962;2022-08-01T01:05:22;98554.59;;;20.42;86.28
2184;BME280;1098;48.940;8.962;2022-08-01T01:07:53;98550.84;;;20.33;83.84
2184;BME280;1098;48.940;8.962;2022-08-01T01:10:25;98554.75;;;20.55;85.39
2184;BME280;1098;48.940;8.962;2022-08-01T01:12:59;98547.00;;;20.86;82.87
2184;BME280;1098;48.940;8.962;2022-08-01T01:15:30;98549.09;;;21.18;79.47
2184;BME280;1098;48.940;8.962;2022-08-01T01:18:03;98548.56;;;20.92;80.50
2184;BME280;1098;48.940;8.962;2022-08-01T01:20:34;98555.56;;;20.80;80.40
2184;BME280;1098;48.940;8.962;2022-08-01T01:23:10;98551.72;;;20.57;82.66
2184;BME280;1098;48.940;8.962;2022-08-01T01:25:41;98558.31;;;20.56;83.50
2184;BME280;1098;48.940;8.962;2022-08-01T01:28:15;98549.38;;;21.17;81.99
2184;BME280;1098;48.940;8.962;2022-08-01T01:30:47;98548.81;;;20.96;82.10
2184;BME280;1098;48.940;8.962;2022-08-01T01:33:16;98544.47;;;20.90;82.32
2184;BME280;1098;48.940;8.962;2022-08-01T01:35:46;98558.81;;;20.58;83.35
2184;BME280;1098;48.940;8.962;2022-08-01T01:38:17;98559.31;;;20.36;85.95
2184;BME280;1098;48.940;8.962;2022-08-01T01:40:46;98558.91;;;20.53;86.72
2184;BME280;1098;48.940;8.962;2022-08-01T01:43:15;98565.84;;;20.11;87.75
2184;BME280;1098;48.940;8.962;2022-08-01T01:45:45;98564.88;;;19.92;90.70
2184;BME280;1098;48.940;8.962;2022-08-01T01:48:19;98563.81;;;19.88;92.07
2184;BME280;1098;48.940;8.962;2022-08-01T01:50:48;98566.97;;;20.05;89.88
2184;BME280;1098;48.940;8.962;2022-08-01T01:53:18;98573.66;;;19.94;91.04
2184;BME280;1098;48.940;8.962;2022-08-01T01:55:48;98565.72;;;20.21;91.47
2184;BME280;1098;48.940;8.962;2022-08-01T01:58:19;98568.09;;;19.99;92.71
2184;BME280;1098;48.940;8.962;2022-08-01T02:00:49;98563.84;;;20.17;91.07
2184;BME280;1098;48.940;8.962;2022-08-01T02:03:19;98542.41;;;19.90;91.64
2184;BME280;1098;48.940;8.962;2022-08-01T02:05:48;98571.06;;;20.08;92.09
2184;BME280;1098;48.940;8.962;2022-08-01T02:08:19;98565.59;;;20.08;90.92
2184;BME280;1098;48.940;8.962;2022-08-01T02:10:48;98572.03;;;20.22;92.56
2184;BME280;1098;48.940;8.962;2022-08-01T02:13:32;98569.91;;;19.80;94.57
2184;BME280;1098;48.940;8.962;2022-08-01T02:16:05;98574.16;;;19.96;93.15
2184;BME280;1098;48.940;8.962;2022-08-01T02:18:33;98578.00;;;19.56;97.08
2184;BME280;1098;48.940;8.962;2022-08-01T02:21:02;98570.06;;;19.49;99.42
2184;BME280;1098;48.940;8.962;2022-08-01T02:23:32;98581.91;;;19.89;98.14
2184;BME280;1098;48.940;8.962;2022-08-01T02:26:01;98578.28;;;19.49;100.00
2184;BME280;1098;48.940;8.962;2022-08-01T02:28:41;98580.28;;;19.34;100.00
2184;BME280;1098;48.940;8.962;2022-08-01T02:31:13;98585.00;;;19.18;100.00
2184;BME280;1098;48.940;8.962;2022-08-01T02:33:43;98582.31;;;19.08;100.00
2184;BME280;1098;48.940;8.962;2022-08-01T02:36:12;98579.31;;;19.04;100.00
2184;BME280;1098;48.940;8.962;2022-08-01T02:38:59;98582.34;;;18.93;100.00
2184;BME280;1098;48.940;8.962;2022-08-01T02:41:28;98584.59;;;18.91;100.00
2184;BME280;1098;48.940;8.962;2022-08-01T02:43:59;98582.66;;;18.91;100.00
2184;BME280;1098;48.940;8.962;2022-08-01T02:46:29;98582.41;;;18.82;100.00
2184;BME280;1098;48.940;8.962;2022-08-01T02:48:59;98588.44;;;18.79;100.00
2184;BME280;1098;48.940;8.962;2022-08-01T02:51:31;98586.50;;;18.85;100.00
2184;BME280;1098;48.940;8.962;2022-08-01T02:54:01;98592.53;;;18.87;100.00
2184;BME280;1098;48.940;8.962;2022-08-01T02:56:30;98588.97;;;18.86;100.00
2184;BME280;1098;48.940;8.962;2022-08-01T02:59:03;98591.66;;;19.07;100.00
2184;BME280;1098;48.940;8.962;2022-08-01T03:01:34;98586.19;;;18.92;100.00
2184;BME280;1098;48.940;8.962;2022-08-01T03:04:03;98594.47;;;18.81;100.00
2184;BME280;1098;48.940;8.962;2022-08-01T03:06:34;98593.38;;;18.72;100.00
2184;BME280;1098;48.940;8.962;2022-08-01T03:09:04;98591.16;;;18.79;100.00
2184;BME280;1098;48.940;8.962;2022-08-01T03:11:34;98597.47;;;18.85;100.00
2184;BME280;1098;48.940;8.962;2022-08-01T03:14:04;98584.25;;;18.97;100.00
2184;BME280;1098;48.940;8.962;2022-08-01T03:16:35;98587.00;;;19.02;100.00
2184;BME280;1098;48.940;8.962;2022-08-01T03:19:05;98589.53;;;18.78;100.00
2184;BME280;1098;48.940;8.962;2022-08-01T03:21:34;98584.00;;;18.99;100.00
2184;BME280;1098;48.940;8.962;2022-08-01T03:24:06;98582.34;;;18.93;100.00
2184;BME280;1098;48.940;8.962;2022-08-01T03:26:36;98595.28;;;18.77;100.00
2184;BME280;1098;48.940;8.962;2022-08-01T03:29:05;98591.72;;;18.81;100.00
2184;BME280;1098;48.940;8.962;2022-08-01T03:31:35;98592.25;;;18.78;100.00
2184;BME280;1098;48.940;8.962;2022-08-01T03:34:04;98594.19;;;18.73;100.00
2184;BME280;1098;48.940;8.962;2022-08-01T03:36:33;98596.63;;;18.84;100.00
2184;BME280;1098;48.940;8.962;2022-08-01T03:39:05;98595.00;;;18.78;100.00
2184;BME280;1098;48.940;8.962;2022-08-01T03:41:37;98592.47;;;18.97;100.00
2184;BME280;1098;48.940;8.962;2022-08-01T03:44:16;98601.84;;;18.81;100.00
2184;BME280;1098;48.940;8.962;2022-08-01T03:46:47;98599.44;;;18.59;100.00
2184;BME280;1098;48.940;8.962;2022-08-01T03:49:17;98600.78;;;18.36;100.00
2184;BME280;1098;48.940;8.962;2022-08-01T03:51:46;98607.59;;;18.54;100.00
2184;BME280;1098;48.940;8.962;2022-08-01T03:54:16;98596.63;;;18.84;100.00
2184;BME280;1098;48.940;8.962;2022-08-01T03:56:48;98596.56;;;19.05;100.00
2184;BME280;1098;48.940;8.962;2022-08-01T03:59:18;98601.38;;;19.33;100.00
2184;BME280;1098;48.940;8.962;2022-08-01T04:01:48;98596.03;;;19.08;100.00
2184;BME280;1098;48.940;8.962;2022-08-01T04:04:16;98606.50;;;18.80;100.00
2184;BME280;1098;48.940;8.962;2022-08-01T04:06:44;98605.41;;;18.51;100.00
2184;BME280;1098;48.940;8.962;2022-08-01T04:09:12;98602.94;;;18.90;100.00
2184;BME280;1098;48.940;8.962;2022-08-01T04:11:41;98603.78;;;18.75;100.00
2184;BME280;1098;48.940;8.962;2022-08-01T04:14:09;98605.09;;;18.93;100.00
2184;BME280;1098;48.940;8.962;2022-08-01T04:16:37;98596.88;;;18.98;100.00
2184;BME280;1098;48.940;8.962;2022-08-01T04:19:07;98598.75;;;19.08;100.00
2184;BME280;1098;48.940;8.962;2022-08-01T04:21:35;98603.44;;;18.97;100.00
2184;BME280;1098;48.940;8.962;2022-08-01T04:24:05;98600.47;;;18.78;100.00
2184;BME280;1098;48.940;8.962;2022-08-01T04:26:36;98598.84;;;18.82;100.00
2184;BME280;1098;48.940;8.962;2022-08-01T04:29:05;98605.13;;;18.83;100.00
2184;BME280;1098;48.940;8.962;2022-08-01T04:31:34;98599.16;;;19.40;100.00
2184;BME280;1098;48.940;8.962;2022-08-01T04:34:04;98611.50;;;19.38;100.00
2184;BME280;1098;48.940;8.962;2022-08-01T04:36:35;98609.09;;;19.26;100.00
2184;BME280;1098;48.940;8.962;2022-08-01T04:39:04;98608.75;;;19.43;100.00
2184;BME280;1098;48.940;8.962;2022-08-01T04:41:36;98608.31;;;19.75;100.00
2184;BME280;1098;48.940;8.962;2022-08-01T04:44:05;98611.66;;;19.72;100.00
2184;BME280;1098;48.940;8.962;2022-08-01T04:46:33;98612.66;;;19.86;100.00
2184;BME280;1098;48.940;8.962;2022-08-01T04:49:04;98612.28;;;19.98;100.00
2184;BME280;1098;48.940;8.962;2022-08-01T04:51:35;98605.56;;;19.75;100.00
2184;BME280;1098;48.940;8.962;2022-08-01T04:54:03;98611.47;;;19.43;100.00
2184;BME280;1098;48.940;8.962;2022-08-01T04:56:31;98605.56;;;19.75;100.00
2184;BME280;1098;48.940;8.962;2022-08-01T04:59:00;98614.16;;;20.07;100.00
2184;BME280;1098;48.940;8.962;2022-08-01T05:01:48;98615.06;;;20.37;100.00
2184;BME280;1098;48.940;8.962;2022-08-01T05:04:17;98617.22;;;20.35;100.00
2184;BME280;1098;48.940;8.962;2022-08-01T05:06:47;98611.81;;;20.24;100.00
2184;BME280;1098;48.940;8.962;2022-08-01T05:09:15;98609.69;;;21.03;100.00
2184;BME280;1098;48.940;8.962;2022-08-01T05:11:43;98606.78;;;20.95;100.00
2184;BME280;1098;48.940;8.962;2022-08-01T05:14:11;98607.66;;;20.61;100.00
2184;BME280;1098;48.940;8.962;2022-08-01T05:16:39;98608.97;;;20.98;100.00
2184;BME280;1098;48.940;8.962;2022-08-01T05:19:10;98606.34;;;21.35;100.00
2184;BME280;1098;48.940;8.962;2022-08-01T05:21:38;98613.47;;;21.36;100.00
2184;BME280;1098;48.940;8.962;2022-08-01T05:24:08;98623.69;;;20.54;100.00
2184;BME280;1098;48.940;8.962;2022-08-01T05:26:36;98618.31;;;20.39;100.00
2184;BME280;1098;48.940;8.962;2022-08-01T05:29:07;98614.78;;;20.33;100.00
2184;BME280;1098;48.940;8.962;2022-08-01T05:31:35;98626.16;;;20.79;100.00
2184;BME280;1098;48.940;8.962;2022-08-01T05:34:05;98610.97;;;21.40;100.00
2184;BME280;1098;48.940;8.962;2022-08-01T05:36:40;98615.16;;;21.75;100.00
2184;BME280;1098;48.940;8.962;2022-08-01T05:39:10;98613.59;;;22.06;100.00
2184;BME280;1098;48.940;8.962;2022-08-01T05:41:38;98621.94;;;22.20;100.00
2184;BME280;1098;48.940;8.962;2022-08-01T05:44:06;98614.31;;;22.95;100.00
2184;BME280;1098;48.940;8.962;2022-08-01T05:46:34;98609.09;;;23.76;93.69
2184;BME280;1098;48.940;8.962;2022-08-01T05:49:03;98624.66;;;25.94;78.20
2184;BME280;1098;48.940;8.962;2022-08-01T05:51:32;98625.41;;;27.65;64.75
2184;BME280;1098;48.940;8.962;2022-08-01T05:54:00;98615.22;;;26.29;70.29
2184;BME280;1098;48.940;8.962;2022-08-01T05:56:30;98619.31;;;28.43;58.71
2184;BME280;1098;48.940;8.962;2022-08-01T05:59:01;98617.41;;;30.51;49.69
2184;BME280;1098;48.940;8.962;2022-08-01T06:01:29;98613.38;;;29.35;51.27
2184;BME280;1098;48.940;8.962;2022-08-01T06:03:57;98626.06;;;30.33;49.88
2184;BME280;1098;48.940;8.962;2022-08-01T06:06:25;98621.28;;;29.82;49.84
2184;BME280;1098;48.940;8.962;2022-08-01T06:08:53;98637.06;;;30.02;51.95
2184;BME280;1098;48.940;8.962;2022-08-01T06:11:21;98626.19;;;29.60;50.60
2184;BME280;1098;48.940;8.962;2022-08-01T06:13:51;98621.75;;;31.86;46.70
2184;BME280;1098;48.940;8.962;2022-08-01T06:16:20;98625.66;;;31.19;45.13
2184;BME280;1098;48.940;8.962;2022-08-01T06:18:48;98619.97;;;32.13;43.17
2184;BME280;1098;48.940;8.962;2022-08-01T06:21:22;98605.25;;;31.15;45.48
2184;BME280;1098;48.940;8.962;2022-08-01T06:23:53;98614.59;;;32.43;42.24
2184;BME280;1098;48.940;8.962;2022-08-01T06:26:21;98625.41;;;32.64;42.46
2184;BME280;1098;48.940;8.962;2022-08-01T06:28:51;98619.41;;;32.42;42.67
2184;BME280;1098;48.940;8.962;2022-08-01T06:31:20;98621.47;;;33.07;40.70
2184;BME280;1098;48.940;8.962;2022-08-01T06:33:48;98622.75;;;32.13;41.68
2184;BME280;1098;48.940;8.962;2022-08-01T06:36:16;98618.94;;;31.35;42.81
2184;BME280;1098;48.940;8.962;2022-08-01T06:38:45;98617.03;;;27.07;58.33
2184;BME280;1098;48.940;8.962;2022-08-01T06:41:13;98623.19;;;26.14;62.86
2184;BME280;1098;48.940;8.962;2022-08-01T06:43:41;98625.78;;;25.36;71.36
2184;BME280;1098;48.940;8.962;2022-08-01T06:46:10;98615.63;;;25.14;72.44
2184;BME280;1098;48.940;8.962;2022-08-01T06:48:40;98626.13;;;25.34;71.69
2184;BME280;1098;48.940;8.962;2022-08-01T06:51:09;98630.41;;;25.10;71.45
2184;BME280;1098;48.940;8.962;2022-08-01T06:53:40;98629.47;;;24.03;79.68
2184;BME280;1098;48.940;8.962;2022-08-01T06:56:10;98630.88;;;24.58;78.16
2184;BME280;1098;48.940;8.962;2022-08-01T06:58:39;98638.84;;;24.82;79.61
2184;BME280;1098;48.940;8.962;2022-08-01T07:01:07;98637.00;;;24.69;78.04
2184;BME280;1098;48.940;8.962;2022-08-01T07:03:39;98640.50;;;24.61;77.45
2184;BME280;1098;48.940;8.962;2022-08-01T07:06:21;98635.44;;;24.18;80.74
2184;BME280;1098;48.940;8.962;2022-08-01T07:08:50;98641.75;;;24.32;79.53
2184;BME280;1098;48.940;8.962;2022-08-01T07:11:18;98648.59;;;24.57;81.33
2184;BME280;1098;48.940;8.962;2022-08-01T07:13:46;98640.31;;;24.35;81.92
2184;BME280;1098;48.940;8.962;2022-08-01T07:16:14;98643.56;;;24.82;80.35
2184;BME280;1098;48.940;8.962;2022-08-01T07:18:46;98632.56;;;25.21;78.33
2184;BME280;1098;48.940;8.962;2022-08-01T07:21:15;98636.81;;;24.65;79.77
2184;BME280;1098;48.940;8.962;2022-08-01T07:24:03;98644.88;;;24.84;76.80
2184;BME280;1098;48.940;8.962;2022-08-01T07:26:40;98631.34;;;24.52;79.61
2184;BME280;1098;48.940;8.962;2022-08-01T07:29:20;98634.56;;;24.09;81.09
2184;BME280;1098;48.940;8.962;2022-08-01T07:31:48;98642.72;;;24.14;80.67
2184;BME280;1098;48.940;8.962;2022-08-01T07:34:18;98634.84;;;24.66;80.86
2184;BME280;1098;48.940;8.962;2022-08-01T07:36:46;98640.59;;;24.78;77.50
2184;BME280;1098;48.940;8.962;2022-08-01T07:39:14;98631.22;;;25.10;73.23
2184;BME280;1098;48.940;8.962;2022-08-01T07:41:42;98627.91;;;24.77;76.23
2184;BME280;1098;48.940;8.962;2022-08-01T07:44:30;98627.81;;;24.60;77.50
2184;BME280;1098;48.940;8.962;2022-08-01T07:46:58;98630.97;;;25.29;76.24
2184;BME280;1098;48.940;8.962;2022-08-01T07:49:28;98623.50;;;24.98;73.42
2184;BME280;1098;48.940;8.962;2022-08-01T07:52:00;98626.03;;;24.86;76.26
2184;BME280;1098;48.940;8.962;2022-08-01T07:54:30;98628.75;;;24.55;78.48
2184;BME280;1098;48.940;8.962;2022-08-01T07:56:59;98624.13;;;24.64;78.92
2184;BME280;1098;48.940;8.962;2022-08-01T07:59:28;98625.56;;;24.40;81.99
2184;BME280;1098;48.940;8.962;2022-08-01T08:01:58;98626.56;;;24.44;81.35
2184;BME280;1098;48.940;8.962;2022-08-01T08:04:28;98628.59;;;24.52;79.69
2184;BME280;1098;48.940;8.962;2022-08-01T08:06:56;98628.00;;;24.63;79.14
2184;BME280;1098;48.940;8.962;2022-08-01T08:09:24;98627.97;;;24.86;77.30
2184;BME280;1098;48.940;8.962;2022-08-01T08:11:53;98624.88;;;24.56;79.85
2184;BME280;1098;48.940;8.962;2022-08-01T08:14:23;98629.72;;;24.51;81.07
2184;BME280;1098;48.940;8.962;2022-08-01T08:17:01;98622.28;;;24.38;83.13
2184;BME280;1098;48.940;8.962;2022-08-01T08:19:30;98627.31;;;24.36;82.11
2184;BME280;1098;48.940;8.962;2022-08-01T08:22:05;98620.94;;;24.80;81.44
2184;BME280;1098;48.940;8.962;2022-08-01T08:24:34;98622.22;;;25.44;79.19
2184;BME280;1098;48.940;8.962;2022-08-01T08:27:11;98618.00;;;24.54;81.09
2184;BME280;1098;48.940;8.962;2022-08-01T08:29:39;98620.28;;;25.05;79.43
2184;BME280;1098;48.940;8.962;2022-08-01T08:32:08;98616.16;;;24.94;77.66
2184;BME280;1098;48.940;8.962;2022-08-01T08:34:38;98623.69;;;25.02;78.22
2184;BME280;1098;48.940;8.962;2022-08-01T08:37:07;98617.88;;;24.81;82.85
2184;BME280;1098;48.940;8.962;2022-08-01T08:39:36;98613.63;;;25.06;80.71
2184;BME280;1098;48.940;8.962;2022-08-01T08:42:08;98617.78;;;24.64;80.26
2184;BME280;1098;48.940;8.962;2022-08-01T08:44:37;98611.25;;;24.91;78.56
2184;BME280;1098;48.940;8.962;2022-08-01T08:47:10;98610.88;;;25.06;77.31
2184;BME280;1098;48.940;8.962;2022-08-01T08:49:46;98615.69;;;25.40;77.10
2184;BME280;1098;48.940;8.962;2022-08-01T08:52:15;98606.84;;;25.78;77.75
2184;BME280;1098;48.940;8.962;2022-08-01T08:54:45;98609.00;;;26.15;73.30
2184;BME280;1098;48.940;8.962;2022-08-01T08:57:13;98621.53;;;26.04;69.93
2184;BME280;1098;48.940;8.962;2022-08-01T08:59:42;98614.19;;;25.74;71.75
2184;BME280;1098;48.940;8.962;2022-08-01T09:02:10;98612.38;;;25.12;73.36
2184;BME280;1098;48.940;8.962;2022-08-01T09:04:40;98611.84;;;25.58;73.05
2184;BME280;1098;48.940;8.962;2022-08-01T09:07:09;98615.75;;;25.09;71.59
2184;BME280;1098;48.940;8.962;2022-08-01T09:09:38;98616.84;;;24.99;75.62
2184;BME280;1098;48.940;8.962;2022-08-01T09:12:09;98627.28;;;25.03;75.47
2184;BME280;1098;48.940;8.962;2022-08-01T09:14:43;98622.72;;;25.46;72.10
2184;BME280;1098;48.940;8.962;2022-08-01T09:17:12;98624.63;;;25.28;73.35
2184;BME280;1098;48.940;8.962;2022-08-01T09:19:41;98627.97;;;25.56;75.29
2184;BME280;1098;48.940;8.962;2022-08-01T09:22:11;98624.13;;;26.61;68.29
2184;BME280;1098;48.940;8.962;2022-08-01T09:24:40;98622.16;;;25.66;68.82
2184;BME280;1098;48.940;8.962;2022-08-01T09:27:16;98624.63;;;26.02;68.40
2184;BME280;1098;48.940;8.962;2022-08-01T09:29:48;98631.69;;;25.52;71.23
2184;BME280;1098;48.940;8.962;2022-08-01T09:32:28;98622.59;;;25.60;72.32
2184;BME280;1098;48.940;8.962;2022-08-01T09:37:46;98629.19;;;25.98;71.38
2184;BME280;1098;48.940;8.962;2022-08-01T09:40:14;98634.38;;;25.74;70.69
2184;BME280;1098;48.940;8.962;2022-08-01T09:42:43;98632.94;;;26.02;69.44
2184;BME280;1098;48.940;8.962;2022-08-01T09:45:32;98623.03;;;26.53;64.08
2184;BME280;1098;48.940;8.962;2022-08-01T09:48:11;98614.34;;;26.72;66.14
2184;BME280;1098;48.940;8.962;2022-08-01T09:50:41;98621.53;;;26.73;65.37
2184;BME280;1098;48.940;8.962;2022-08-01T09:53:11;98623.78;;;26.80;66.29
2184;BME280;1098;48.940;8.962;2022-08-01T09:56:07;98621.63;;;26.85;63.83
2184;BME280;1098;48.940;8.962;2022-08-01T09:58:48;98621.59;;;27.02;64.40
2184;BME280;1098;48.940;8.962;2022-08-01T10:01:24;98612.59;;;26.59;63.55
2184;BME280;1098;48.940;8.962;2022-08-01T10:04:06;98616.63;;;26.79;64.68
2184;BME280;1098;48.940;8.962;2022-08-01T10:06:36;98615.72;;;27.04;61.49
2184;BME280;1098;48.940;8.962;2022-08-01T10:09:06;98610.78;;;26.46;61.01
2184;BME280;1098;48.940;8.962;2022-08-01T10:11:34;98616.91;;;26.86;61.66
2184;BME280;1098;48.940;8.962;2022-08-01T10:14:06;98614.22;;;26.51;63.77
2184;BME280;1098;48.940;8.962;2022-08-01T10:16:35;98608.44;;;26.82;60.28
2184;BME280;1098;48.940;8.962;2022-08-01T10:19:05;98604.50;;;26.83;61.27
2184;BME280;1098;48.940;8.962;2022-08-01T10:21:41;98596.63;;;27.11;57.71
2184;BME280;1098;48.940;8.962;2022-08-01T10:24:27;98593.09;;;27.31;57.54
2184;BME280;1098;48.940;8.962;2022-08-01T10:26:57;98595.59;;;28.04;55.07
2184;BME280;1098;48.940;8.962;2022-08-01T10:29:35;98603.94;;;27.45;57.69
2184;BME280;1098;48.940;8.962;2022-08-01T10:32:13;98603.47;;;27.14;57.69
2184;BME280;1098;48.940;8.962;2022-08-01T10:34:42;98604.72;;;26.69;59.56
2184;BME280;1098;48.940;8.962;2022-08-01T10:37:11;98600.16;;;26.74;61.17
2184;BME280;1098;48.940;8.962;2022-08-01T10:39:43;98595.38;;;26.83;60.85
2184;BME280;1098;48.940;8.962;2022-08-01T10:42:12;98601.16;;;26.00;63.77
2184;BME280;1098;48.940;8.962;2022-08-01T10:44:41;98599.38;;;25.87;65.22
2184;BME280;1098;48.940;8.962;2022-08-01T10:47:15;98593.03;;;26.21;63.00
2184;BME280;1098;48.940;8.962;2022-08-01T10:49:54;98584.59;;;26.90;61.11
2184;BME280;1098;48.940;8.962;2022-08-01T10:52:25;98589.94;;;26.48;60.75
2184;BME280;1098;48.940;8.962;2022-08-01T10:55:02;98588.19;;;26.90;60.10
2184;BME280;1098;48.940;8.962;2022-08-01T10:57:41;98587.22;;;27.33;58.55
2184;BME280;1098;48.940;8.962;2022-08-01T11:00:18;98587.34;;;26.34;60.38
2184;BME280;1098;48.940;8.962;2022-08-01T11:02:56;98580.81;;;27.41;58.53
2184;BME280;1098;48.940;8.962;2022-08-01T11:05:24;98578.97;;;27.75;56.90
2184;BME280;1098;48.940;8.962;2022-08-01T11:07:54;98576.56;;;27.94;56.61
2184;BME280;1098;48.940;8.962;2022-08-01T11:10:27;98567.59;;;28.09;54.15
2184;BME280;1098;48.940;8.962;2022-08-01T11:12:59;98578.44;;;28.44;53.21
2184;BME280;1098;48.940;8.962;2022-08-01T11:15:30;98564.81;;;28.30;52.43
2184;BME280;1098;48.940;8.962;2022-08-01T11:17:59;98566.78;;;27.67;54.39
2184;BME280;1098;48.940;8.962;2022-08-01T11:20:28;98561.59;;;27.57;56.47
2184;BME280;1098;48.940;8.962;2022-08-01T11:29:16;98560.47;;;27.28;57.06
2184;BME280;1098;48.940;8.962;2022-08-01T11:31:48;98566.50;;;27.30;57.56
2184;BME280;1098;48.940;8.962;2022-08-01T11:34:16;98561.66;;;26.81;59.74
2184;BME280;1098;48.940;8.962;2022-08-01T11:36:47;98561.06;;;27.43;57.59
2184;BME280;1098;48.940;8.962;2022-08-01T11:39:35;98558.63;;;27.41;57.18
2184;BME280;1098;48.940;8.962;2022-08-01T11:42:19;98555.81;;;27.70;56.66
2184;BME280;1098;48.940;8.962;2022-08-01T11:44:50;98551.81;;;27.59;54.76
2184;BME280;1098;48.940;8.962;2022-08-01T11:47:18;98550.78;;;27.43;56.35
2184;BME280;1098;48.940;8.962;2022-08-01T11:50:16;98550.34;;;27.83;56.58
2184;BME280;1098;48.940;8.962;2022-08-01T11:52:57;98548.69;;;27.02;58.06
2184;BME280;1098;48.940;8.962;2022-08-01T11:55:26;98546.75;;;27.32;58.24
2184;BME280;1098;48.940;8.962;2022-08-01T11:57:58;98543.38;;;27.47;58.29
2184;BME280;1098;48.940;8.962;2022-08-01T12:00:28;98529.41;;;27.64;56.17
2184;BME280;1098;48.940;8.962;2022-08-01T12:02:57;98527.69;;;27.93;57.63
2184;BME280;1098;48.940;8.962;2022-08-01T12:05:27;98514.97;;;27.71;55.70
2184;BME280;1098;48.940;8.962;2022-08-01T12:07:57;98514.44;;;27.98;57.70
2184;BME280;1098;48.940;8.962;2022-08-01T12:10:25;98514.47;;;29.01;54.33
2184;BME280;1098;48.940;8.962;2022-08-01T12:12:56;98521.31;;;29.16;53.31
2184;BME280;1098;48.940;8.962;2022-08-01T12:15:31;98518.91;;;28.57;52.95
2184;BME280;1098;48.940;8.962;2022-08-01T12:18:00;98523.81;;;28.72;52.86
2184;BME280;1098;48.940;8.962;2022-08-01T12:20:30;98522.22;;;28.05;54.73
2184;BME280;1098;48.940;8.962;2022-08-01T12:22:59;98519.53;;;28.74;53.11
2184;BME280;1098;48.940;8.962;2022-08-01T12:25:28;98523.31;;;28.46;53.40
2184;BME280;1098;48.940;8.962;2022-08-01T12:27:59;98529.22;;;28.56;52.11
2184;BME280;1098;48.940;8.962;2022-08-01T12:30:27;98530.00;;;27.91;53.70
2184;BME280;1098;48.940;8.962;2022-08-01T12:32:58;98528.69;;;28.09;55.11
2184;BME280;1098;48.940;8.962;2022-08-01T12:35:27;98517.22;;;28.31;53.87
2184;BME280;1098;48.940;8.962;2022-08-01T12:37:56;98508.34;;;28.38;54.33
2184;BME280;1098;48.940;8.962;2022-08-01T12:40:25;98517.84;;;28.16;51.49
2184;BME280;1098;48.940;8.962;2022-08-01T12:42:54;98511.91;;;28.05;53.13
2184;BME280;1098;48.940;8.962;2022-08-01T12:45:24;98507.75;;;28.12;52.70
2184;BME280;1098;48.940;8.962;2022-08-01T12:47:52;98512.69;;;28.72;50.61
2184;BME280;1098;48.940;8.962;2022-08-01T12:50:23;98511.94;;;28.51;52.56
2184;BME280;1098;48.940;8.962;2022-08-01T12:52:54;98506.44;;;28.63;51.94
2184;BME280;1098;48.940;8.962;2022-08-01T12:55:23;98508.09;;;29.00;52.57
2184;BME280;1098;48.940;8.962;2022-08-01T12:58:04;98517.09;;;28.07;52.82
2184;BME280;1098;48.940;8.962;2022-08-01T13:00:33;98517.22;;;27.78;53.47
2184;BME280;1098;48.940;8.962;2022-08-01T13:03:02;98506.84;;;28.41;52.15
2184;BME280;1098;48.940;8.962;2022-08-01T13:05:41;98509.72;;;28.89;52.08
2184;BME280;1098;48.940;8.962;2022-08-01T13:08:10;98511.91;;;28.96;50.64
2184;BME280;1098;48.940;8.962;2022-08-01T13:10:39;98508.56;;;29.02;51.38
2184;BME280;1098;48.940;8.962;2022-08-01T13:13:07;98510.22;;;28.58;51.32
2184;BME280;1098;48.940;8.962;2022-08-01T13:15:36;98492.84;;;29.71;49.39
2184;BME280;1098;48.940;8.962;2022-08-01T13:18:22;98490.00;;;28.94;50.77
2184;BME280;1098;48.940;8.962;2022-08-01T13:26:39;98503.03;;;28.45;51.91
2184;BME280;1098;48.940;8.962;2022-08-01T13:29:08;98491.38;;;29.13;49.55
2184;BME280;1098;48.940;8.962;2022-08-01T13:31:38;98497.31;;;29.75;48.53
2184;BME280;1098;48.940;8.962;2022-08-01T13:34:08;98489.78;;;29.76;48.15
2184;BME280;1098;48.940;8.962;2022-08-01T13:36:37;98492.06;;;28.61;50.15
2184;BME280;1098;48.940;8.962;2022-08-01T13:39:08;98492.78;;;29.19;49.86
2184;BME280;1098;48.940;8.962;2022-08-01T13:41:56;98494.06;;;28.97;49.55
2184;BME280;1098;48.940;8.962;2022-08-01T13:44:24;98491.38;;;28.76;50.48
2184;BME280;1098;48.940;8.962;2022-08-01T13:46:54;98496.34;;;29.31;49.23
2184;BME280;1098;48.940;8.962;2022-08-01T13:49:23;98500.91;;;29.12;49.51
2184;BME280;1098;48.940;8.962;2022-08-01T13:52:03;98497.13;;;28.47;49.65
2184;BME280;1098;48.940;8.962;2022-08-01T13:54:33;98493.41;;;28.43;50.23